Terminal Aerodrome Forecast
Issued by NWS

Home | Current Version | Previous Version | Text Only | Print | Product List | Glossary Off
Versions: 1 2 3 4 5 6 7 8 9 10 11 12 13 14 15 16 17 18 19 20 21 22

000
FTUS43 KBIS 220200 AAA
TAFDIK
TAF AMD
KDIK 220251Z 2203/2224 02011KT P6SM SCT015
     FM220400 36009KT 5SM BR SCT005 BKN015
     FM220600 34005KT 2SM BR BKN006 OVC010
     FM221400 02005KT 5SM BR BKN015
     FM221700 08007KT P6SM SCT050=

USA.gov is the U.S. government's official web portal to all federal, state and local government web resources and services.